Sunday, June 17, 2018, 10:00 PM EDT
Back to Local

KMSV, Monticello, Sullivan County International Airport

Location: Swan Lake, NY, United States Lat: 41.7
Local Time: 10:00 PM EDT ( 2:00 GMT) Lon: -74.8
Time Zone: US/Eastern Elev: 1404 ft

Show me the last for .
Show Decoded

2018-06-17 20:56 METAR KMSV 180056Z AUTO 18005KT 10SM CLR 24/17 A3009 RMK AO2 SLP181 T02440167 =
2018-06-17 19:56 METAR KMSV 172356Z AUTO 18005KT 10SM CLR 27/17 A3009 RMK AO2 SLP181 T02670167
                 10306 20267 58005 =
2018-06-17 18:56 METAR KMSV 172256Z AUTO 00000KT 10SM CLR 28/16 A3010 RMK AO2 SLP186 T02830156 =
2018-06-17 17:56 METAR KMSV 172156Z AUTO 27004KT 10SM CLR 29/14 A3011 RMK AO2 SLP188 T02940139 =
2018-06-17 16:56 METAR KMSV 172056Z AUTO 26006KT 10SM CLR 29/14 A3010 RMK AO2 SLP187 T02940139
                 58001 =
2018-06-17 15:56 METAR KMSV 171956Z AUTO VRB06KT 10SM FEW060 30/15 A3011 RMK AO2 SLP188 T03000150
                 =
2018-06-17 14:56 METAR KMSV 171856Z AUTO VRB04KT 10SM CLR 29/14 A3011 RMK AO2 SLP189 T02940144 =
2018-06-17 13:56 METAR KMSV 171756Z AUTO VRB05KT 10SM CLR 29/13 A3011 RMK AO2 SLP188 T02890128
                 10294 20167 58017 =
2018-06-17 12:56 METAR KMSV 171656Z AUTO 00000KT 10SM CLR 28/13 A3013 RMK AO2 SLP196 T02830128 =
2018-06-17 11:56 METAR KMSV 171556Z AUTO 25006KT 10SM CLR 27/12 A3014 RMK AO2 SLP199 T02670122 =
2018-06-17 10:56 METAR KMSV 171456Z AUTO 28006KT 10SM CLR 27/13 A3016 RMK AO2 SLP205 T02670133
                 50006 =
2018-06-17 09:56 METAR KMSV 171356Z AUTO 00000KT 10SM CLR 25/13 A3016 RMK AO2 SLP205 T02500133 =
2018-06-17 08:56 METAR KMSV 171256Z AUTO 24003KT 10SM CLR 22/11 A3015 RMK AO2 SLP202 T02170111 =
2018-06-17 07:56 METAR KMSV 171156Z AUTO 00000KT 10SM CLR 17/11 A3014 RMK AO2 SLP201 T01670106
                 10167 20106 51014 =
2018-06-17 06:56 METAR KMSV 171056Z AUTO 00000KT 10SM CLR 13/11 A3013 RMK AO2 SLP197 T01330106 =
2018-06-17 05:56 METAR KMSV 170956Z AUTO 35003KT 10SM CLR 11/09 A3011 RMK AO2 SLP192 T01110094 =
2018-06-17 04:56 METAR KMSV 170856Z AUTO 00000KT 10SM CLR 12/09 A3010 RMK AO2 SLP187 T01170094
                 50004 =
2018-06-17 03:56 METAR KMSV 170756Z AUTO 02003KT 10SM CLR 12/09 A3010 RMK AO2 SLP189 T01170094 =
2018-06-17 02:56 METAR KMSV 170656Z AUTO 00000KT 10SM CLR 12/09 A3010 RMK AO2 SLP187 T01170089 =
2018-06-17 01:56 METAR KMSV 170556Z AUTO 06003KT 10SM CLR 12/10 A3009 RMK AO2 SLP183 T01220100
                 10233 20117 58001 =
2018-06-17 00:56 METAR KMSV 170456Z AUTO 02003KT 10SM CLR 13/11 A3009 RMK AO2 SLP185 T01330106
                 402670078 =
2018-06-16 23:56 METAR KMSV 170356Z AUTO 00000KT 10SM CLR 15/11 A3010 RMK AO2 SLP188 T01500111 =
2018-06-16 22:56 METAR KMSV 170256Z AUTO 00000KT 10SM CLR 16/11 A3009 RMK AO2 SLP184 T01610106
                 53012 =

Support USWX by starting your Amazon purchase here.